Time;durP1;ratioP1;P1;durP2;ratioP2;P2;SDS_P1;SDS_P2;PMS_P1;PMS_P2;Temp;Humidity;BMP_temperature;BMP_pressure;BME280_temperature;BME280_humidity;BME280_pressure;Samples;Min_cycle;Max_cycle;Signal;HPM_P1;HPM_P2
2023/01/28 00:02:18;;;;;;;16.75;11.00;;;28.50;99.90;;;;;;5072890;28;20203;-77
2023/01/28 00:04:53;;;;;;;17.55;11.48;;;28.70;99.90;;;;;;5068897;28;20576;-76
2023/01/28 00:07:24;;;;;;;27.30;14.15;;;28.80;99.90;;;;;;5072458;28;20196;-78
2023/01/28 00:09:55;;;;;;;16.20;10.57;;;29.00;99.90;;;;;;5065183;28;20194;-78
2023/01/28 00:12:26;;;;;;;18.27;11.30;;;29.10;99.90;;;;;;5054240;28;20219;-76
2023/01/28 00:14:59;;;;;;;16.27;11.13;;;29.20;99.90;;;;;;5053800;28;20330;-77
2023/01/28 00:17:30;;;;;;;14.80;10.75;;;29.20;99.90;;;;;;5073406;28;20652;-77
2023/01/28 00:20:01;;;;;;;16.90;10.95;;;29.30;99.90;;;;;;5071937;28;20663;-78
2023/01/28 00:22:32;;;;;;;16.85;10.70;;;29.40;99.90;;;;;;5068278;28;20212;-80
2023/01/28 00:25:03;;;;;;;15.98;11.05;;;29.50;99.90;;;;;;5072437;28;20633;-79
2023/01/28 00:27:34;;;;;;;14.65;10.07;;;29.60;99.90;;;;;;5070559;28;20216;-78
2023/01/28 00:30:08;;;;;;;15.55;10.23;;;29.60;99.90;;;;;;5071957;28;20197;-76
2023/01/28 00:32:39;;;;;;;16.05;10.50;;;29.60;99.90;;;;;;5072391;28;20196;-76
2023/01/28 00:35:10;;;;;;;15.07;10.40;;;29.70;99.90;;;;;;5070374;28;20273;-77
2023/01/28 00:37:41;;;;;;;17.40;10.48;;;29.80;99.90;;;;;;5070415;28;20200;-79
2023/01/28 00:40:13;;;;;;;16.05;10.95;;;29.90;99.90;;;;;;5068035;28;20275;-78
2023/01/28 00:42:44;;;;;;;46.08;38.22;;;29.90;99.90;;;;;;5076227;28;20711;-79
2023/01/28 00:45:17;;;;;;;16.40;12.23;;;29.90;99.90;;;;;;5093354;28;20595;-78
2023/01/28 00:47:48;;;;;;;16.00;10.93;;;29.90;99.90;;;;;;5079091;28;20284;-77
2023/01/28 00:50:20;;;;;;;16.33;11.15;;;30.10;99.90;;;;;;5065581;28;20192;-78
2023/01/28 00:52:51;;;;;;;16.20;10.68;;;30.20;99.90;;;;;;5067099;28;20247;-78
2023/01/28 00:55:22;;;;;;;34.28;15.93;;;30.30;99.90;;;;;;5062739;28;20243;-79
2023/01/28 00:57:52;;;;;;;12.63;9.80;;;30.30;99.90;;;;;;5072406;28;20320;-79
2023/01/28 01:00:26;;;;;;;14.00;10.15;;;30.30;99.90;;;;;;5071944;28;20278;-78
2023/01/28 01:02:57;;;;;;;13.43;9.77;;;30.40;99.90;;;;;;5069981;28;20193;-79
2023/01/28 01:05:28;;;;;;;15.48;10.32;;;30.50;99.90;;;;;;5073204;28;20200;-78
2023/01/28 01:08:08;;;;;;;16.27;10.63;;;30.70;99.90;;;;;;5073213;28;20188;-79
2023/01/28 01:10:40;;;;;;;14.05;10.45;;;30.80;99.90;;;;;;5072741;28;20203;-79
2023/01/28 01:13:11;;;;;;;12.48;10.05;;;31.00;99.90;;;;;;5072295;28;20196;-77
2023/01/28 01:15:44;;;;;;;18.40;10.98;;;31.00;99.90;;;;;;5071989;28;20252;-78
2023/01/28 01:18:16;;;;;;;14.38;10.32;;;31.20;99.90;;;;;;5071321;28;20200;-79
2023/01/28 01:20:48;;;;;;;14.75;10.38;;;31.20;99.90;;;;;;5072822;28;20193;-78
2023/01/28 01:23:19;;;;;;;13.73;10.27;;;31.20;99.90;;;;;;5071919;28;20188;-78
2023/01/28 01:25:50;;;;;;;15.65;11.23;;;31.20;99.90;;;;;;5071200;28;20205;-79
2023/01/28 01:28:22;;;;;;;15.80;10.30;;;31.20;99.90;;;;;;5086633;28;20192;-77
2023/01/28 01:31:02;;;;;;;12.45;9.98;;;31.40;99.90;;;;;;5070640;28;20199;-79
2023/01/28 01:33:33;;;;;;;15.35;10.50;;;31.50;99.90;;;;;;5070090;28;20196;-75
2023/01/28 01:36:05;;;;;;;14.40;10.30;;;31.50;99.90;;;;;;5072221;28;20238;-75
2023/01/28 01:38:36;;;;;;;14.60;10.55;;;31.50;99.90;;;;;;5072696;28;20199;-76
2023/01/28 01:41:08;;;;;;;15.10;10.05;;;31.60;99.90;;;;;;5071634;28;20201;-77
2023/01/28 01:43:52;;;;;;;16.35;11.05;;;31.60;99.90;;;;;;5071664;28;20292;-79
2023/01/28 01:46:32;;;;;;;16.25;12.32;;;31.60;99.90;;;;;;5072104;28;20200;-77
2023/01/28 01:49:09;;;;;;;15.52;10.80;;;31.60;99.90;;;;;;5057039;28;20228;-77
2023/01/28 01:51:41;;;;;;;14.20;10.50;;;31.70;99.90;;;;;;5071315;28;20556;-78
2023/01/28 01:54:12;;;;;;;15.70;10.00;;;31.50;99.90;;;;;;5072552;28;20675;-78
2023/01/28 01:56:46;;;;;;;16.48;10.30;;;31.60;99.90;;;;;;5072448;28;20659;-78
2023/01/28 01:59:21;;;;;;;14.55;10.05;;;31.80;99.90;;;;;;5071549;28;20229;-77
2023/01/28 02:01:55;;;;;;;14.63;10.32;;;31.60;99.90;;;;;;5073259;28;20207;-78
2023/01/28 02:04:30;;;;;;;15.32;9.95;;;31.70;99.90;;;;;;5085986;28;20658;-77
2023/01/28 02:07:03;;;;;;;12.43;8.52;;;31.70;99.90;;;;;;5075609;28;20197;-77
2023/01/28 02:09:37;;;;;;;13.45;9.00;;;31.40;99.90;;;;;;5064924;28;20223;-75
2023/01/28 02:12:12;;;;;;;13.70;8.90;;;31.40;99.90;;;;;;5071186;28;20208;-76
2023/01/28 02:14:46;;;;;;;13.70;7.85;;;31.30;99.90;;;;;;5075655;28;20216;-76
2023/01/28 02:17:20;;;;;;;11.88;8.40;;;31.30;99.90;;;;;;5075606;28;20189;-77
2023/01/28 02:19:55;;;;;;;10.10;7.07;;;31.30;99.90;;;;;;5061349;28;20205;-76
2023/01/28 02:22:57;;;;;;;11.30;6.68;;;31.20;99.90;;;;;;5074975;28;20227;-77
2023/01/28 02:25:46;;;;;;;9.65;6.57;;;31.20;99.90;;;;;;5069997;28;20242;-77
2023/01/28 02:28:33;;;;;;;9.80;6.07;;;31.00;99.90;;;;;;5074383;28;20284;-77
2023/01/28 02:31:11;;;;;;;8.80;5.40;;;31.10;99.90;;;;;;5074136;28;20208;-77
2023/01/28 02:33:46;;;;;;;8.43;5.50;;;31.10;99.90;;;;;;5057910;28;20267;-77
2023/01/28 02:36:25;;;;;;;7.72;4.93;;;31.20;99.90;;;;;;5074267;28;20196;-77
2023/01/28 02:38:58;;;;;;;8.95;4.28;;;31.30;99.90;;;;;;5073596;28;20196;-75
2023/01/28 02:41:34;;;;;;;8.85;4.38;;;31.00;99.90;;;;;;5075571;28;20189;-76
2023/01/28 02:44:07;;;;;;;8.15;3.83;;;30.80;99.90;;;;;;5071742;28;20204;-76
2023/01/28 02:49:29;;;;;;;6.85;3.08;;;30.80;99.90;;;;;;5074905;28;20196;-76
2023/01/28 02:55:31;;;;;;;8.70;2.80;;;30.60;99.90;;;;;;5074291;28;20597;-74
2023/01/28 02:58:11;;;;;;;5.43;2.55;;;30.60;99.90;;;;;;5073804;28;20239;-74
2023/01/28 03:00:53;;;;;;;5.10;2.15;;;30.60;99.90;;;;;;5074416;28;20199;-76
2023/01/28 03:03:30;;;;;;;6.85;2.20;;;30.60;99.90;;;;;;5075198;28;20185;-76
2023/01/28 03:06:07;;;;;;;7.00;2.17;;;30.60;99.90;;;;;;5074209;28;20694;-76
2023/01/28 03:36:54;;;;;;;7.95;1.60;;;29.70;99.90;;;;;;5072773;28;20200;-75
2023/01/28 03:39:27;;;;;;;4.10;2.00;;;29.70;99.90;;;;;;5073548;28;20250;-76
2023/01/28 03:42:06;;;;;;;6.32;2.10;;;29.80;99.90;;;;;;5071542;28;20291;-76
2023/01/28 03:44:56;;;;;;;10.02;2.10;;;29.90;99.90;;;;;;5074271;28;20216;-74
2023/01/28 03:47:28;;;;;;;6.03;1.80;;;29.90;99.90;;;;;;5070484;28;20590;-76
2023/01/28 03:50:01;;;;;;;8.60;2.28;;;29.80;99.90;;;;;;5062825;28;20234;-76
2023/01/28 03:52:34;;;;;;;13.13;2.45;;;29.70;99.90;;;;;;5073451;28;20296;-76
2023/01/28 03:55:12;;;;;;;8.77;1.90;;;29.50;99.90;;;;;;5073263;28;20196;-77
2023/01/28 03:57:45;;;;;;;5.53;1.85;;;29.50;99.90;;;;;;5073678;28;20316;-74
2023/01/28 04:00:19;;;;;;;5.93;1.65;;;29.50;99.90;;;;;;5073303;28;20197;-75
2023/01/28 04:02:50;;;;;;;4.32;2.10;;;29.40;99.90;;;;;;5073838;28;20682;-77
2023/01/28 04:05:23;;;;;;;5.28;1.75;;;29.40;99.90;;;;;;5073582;28;20215;-76
2023/01/28 04:07:56;;;;;;;9.05;1.80;;;29.60;99.90;;;;;;5073553;28;20207;-76
2023/01/28 04:10:30;;;;;;;3.92;1.55;;;29.70;99.90;;;;;;5053973;28;20190;-74
2023/01/28 04:13:01;;;;;;;6.38;1.85;;;29.80;99.90;;;;;;5053750;28;20186;-76
2023/01/28 04:15:35;;;;;;;7.30;1.83;;;29.80;99.90;;;;;;5069837;28;20562;-75
2023/01/28 04:18:06;;;;;;;5.82;1.85;;;29.90;99.90;;;;;;5072590;28;20185;-78
2023/01/28 04:20:39;;;;;;;6.53;1.48;;;30.00;99.90;;;;;;5065499;28;20203;-76
2023/01/28 04:23:10;;;;;;;7.60;1.90;;;29.90;99.90;;;;;;5068204;28;20295;-75
2023/01/28 04:25:41;;;;;;;6.53;1.77;;;29.90;99.90;;;;;;5073124;28;20273;-76
2023/01/28 04:28:12;;;;;;;2.75;1.42;;;30.00;99.90;;;;;;5071260;28;20201;-75
2023/01/28 04:30:43;;;;;;;6.65;1.60;;;30.00;99.90;;;;;;5071188;28;20299;-75
2023/01/28 04:33:14;;;;;;;3.35;1.50;;;29.90;99.90;;;;;;5073374;28;20189;-75
2023/01/28 04:35:48;;;;;;;4.95;1.52;;;29.80;99.90;;;;;;5069458;28;20199;-76
2023/01/28 04:38:18;;;;;;;5.72;1.55;;;29.70;99.90;;;;;;5073319;28;20246;-75
2023/01/28 04:40:53;;;;;;;4.88;1.40;;;29.70;99.90;;;;;;5073463;28;20197;-76
2023/01/28 04:43:27;;;;;;;4.35;1.40;;;29.70;99.90;;;;;;5073429;28;20189;-75
2023/01/28 04:45:58;;;;;;;4.80;1.50;;;29.70;99.90;;;;;;5072983;28;20225;-76
2023/01/28 04:48:30;;;;;;;6.35;1.73;;;29.70;99.90;;;;;;5073266;28;20193;-74
2023/01/28 04:51:03;;;;;;;4.85;1.40;;;29.60;99.90;;;;;;5073442;28;20711;-74
2023/01/28 04:53:34;;;;;;;5.95;1.40;;;29.50;99.90;;;;;;5073347;28;20191;-75
2023/01/28 04:56:05;;;;;;;5.32;1.35;;;29.30;99.90;;;;;;5073289;28;20197;-76
2023/01/28 04:58:36;;;;;;;4.32;1.17;;;29.30;99.90;;;;;;5072487;28;20229;-75
2023/01/28 05:01:07;;;;;;;4.75;1.65;;;29.50;99.90;;;;;;5071244;28;20197;-76
2023/01/28 05:03:43;;;;;;;6.82;1.60;;;29.50;99.90;;;;;;5071674;28;20203;-75
2023/01/28 05:06:16;;;;;;;5.30;1.30;;;29.40;99.90;;;;;;5070381;28;20238;-75
2023/01/28 05:08:47;;;;;;;6.28;1.38;;;29.40;99.90;;;;;;5071676;28;20561;-76
2023/01/28 05:11:18;;;;;;;7.80;1.40;;;29.20;99.90;;;;;;5067269;28;20193;-75
2023/01/28 05:13:49;;;;;;;6.63;1.77;;;29.20;99.90;;;;;;5086248;28;20188;-76
2023/01/28 05:16:20;;;;;;;5.63;1.48;;;29.20;99.90;;;;;;5092098;28;20200;-74
2023/01/28 05:18:51;;;;;;;5.07;1.40;;;29.20;99.90;;;;;;5069612;28;20664;-75
2023/01/28 05:21:24;;;;;;;6.20;1.20;;;29.20;99.90;;;;;;5076447;28;20180;-76
2023/01/28 05:23:55;;;;;;;5.47;1.20;;;29.20;99.90;;;;;;5076997;28;20280;-76
2023/01/28 05:26:26;;;;;;;3.72;1.10;;;29.20;99.90;;;;;;5090723;28;20230;-76
2023/01/28 05:28:57;;;;;;;8.32;1.50;;;29.20;99.90;;;;;;5069760;28;20656;-74
2023/01/28 05:31:28;;;;;;;5.95;1.42;;;29.20;99.90;;;;;;5083602;28;20195;-76
2023/01/28 05:33:58;;;;;;;4.68;1.40;;;29.10;99.90;;;;;;5082390;28;20223;-77
2023/01/28 05:36:31;;;;;;;5.85;1.45;;;29.10;99.90;;;;;;5069216;28;20197;-75
2023/01/28 05:39:02;;;;;;;5.80;1.27;;;29.00;99.90;;;;;;5076404;28;20199;-77
2023/01/28 05:41:33;;;;;;;5.25;1.73;;;29.00;99.90;;;;;;5073822;28;20201;-76
2023/01/28 05:44:04;;;;;;;8.00;1.50;;;29.00;99.90;;;;;;5069813;28;20193;-75
2023/01/28 05:46:35;;;;;;;6.80;1.65;;;29.00;99.90;;;;;;5072815;28;20585;-76
2023/01/28 05:49:11;;;;;;;4.45;1.30;;;29.00;99.90;;;;;;5072289;28;20302;-75
2023/01/28 05:51:44;;;;;;;4.45;1.33;;;29.00;99.90;;;;;;5074292;28;20675;-77
2023/01/28 05:54:15;;;;;;;5.07;1.50;;;28.90;99.90;;;;;;5072914;28;20197;-77
2023/01/28 05:56:46;;;;;;;9.98;1.60;;;28.90;99.90;;;;;;5075060;28;20196;-75
2023/01/28 05:59:18;;;;;;;7.63;1.73;;;28.90;99.90;;;;;;5075711;28;20621;-75
2023/01/28 06:01:49;;;;;;;4.82;1.33;;;29.00;99.90;;;;;;5074855;28;20544;-77
2023/01/28 06:04:19;;;;;;;4.53;1.48;;;28.90;99.90;;;;;;5073372;28;20201;-78
2023/01/28 06:06:52;;;;;;;6.40;1.67;;;28.90;99.90;;;;;;5074989;28;20315;-77
2023/01/28 06:09:23;;;;;;;6.65;1.55;;;29.00;99.90;;;;;;5076020;28;20189;-78
2023/01/28 06:11:54;;;;;;;6.53;1.60;;;29.00;99.90;;;;;;5075988;28;20189;-80
2023/01/28 06:14:25;;;;;;;6.53;1.30;;;29.00;99.90;;;;;;5072732;28;20223;-77
2023/01/28 06:16:56;;;;;;;7.00;1.70;;;28.90;99.90;;;;;;5075008;28;20223;-78
2023/01/28 06:19:27;;;;;;;5.82;1.60;;;28.90;99.90;;;;;;5075625;28;20283;-78
2023/01/28 06:22:00;;;;;;;4.70;1.45;;;28.90;99.90;;;;;;5073579;28;20734;-77
2023/01/28 06:24:31;;;;;;;8.30;2.28;;;28.80;99.90;;;;;;5074823;28;20287;-76
2023/01/28 06:27:02;;;;;;;6.45;1.80;;;28.70;99.90;;;;;;5073843;28;20701;-78
2023/01/28 06:29:33;;;;;;;8.48;1.60;;;28.50;99.90;;;;;;5074309;28;20196;-76
2023/01/28 06:32:04;;;;;;;6.93;1.55;;;28.40;99.90;;;;;;5072563;28;20544;-78
2023/01/28 06:34:35;;;;;;;6.60;1.70;;;28.40;99.90;;;;;;5068181;28;20207;-77
2023/01/28 06:37:08;;;;;;;10.10;2.13;;;28.40;99.90;;;;;;5074789;28;20208;-80
2023/01/28 06:39:39;;;;;;;6.47;2.17;;;28.40;99.90;;;;;;5074239;28;20199;-77
2023/01/28 06:42:10;;;;;;;9.70;1.95;;;28.40;99.90;;;;;;5074467;28;20196;-76
2023/01/28 06:44:41;;;;;;;8.45;1.90;;;28.40;99.90;;;;;;5065633;28;20203;-76
2023/01/28 06:47:13;;;;;;;8.43;1.70;;;28.40;99.90;;;;;;5069745;28;20228;-74
2023/01/28 06:49:44;;;;;;;8.57;2.15;;;28.30;99.90;;;;;;5072480;28;20203;-77
2023/01/28 06:52:17;;;;;;;6.65;1.80;;;28.20;99.90;;;;;;5072795;28;20200;-75
2023/01/28 06:54:48;;;;;;;9.57;2.13;;;28.20;99.90;;;;;;5075162;28;20189;-75
2023/01/28 06:57:19;;;;;;;8.93;1.83;;;28.10;99.90;;;;;;5074725;28;20232;-74
2023/01/28 06:59:51;;;;;;;5.45;1.90;;;28.20;99.90;;;;;;5074819;28;20192;-75
2023/01/28 07:02:22;;;;;;;8.80;1.90;;;28.00;99.90;;;;;;5075179;28;20190;-76
2023/01/28 07:04:53;;;;;;;10.05;2.40;;;28.00;99.90;;;;;;5075250;28;20195;-74
2023/01/28 07:07:25;;;;;;;12.63;2.20;;;27.90;99.90;;;;;;5075108;28;20220;-74
2023/01/28 07:09:56;;;;;;;7.80;2.00;;;27.90;99.90;;;;;;5069604;28;20208;-74
2023/01/28 07:12:27;;;;;;;10.88;2.28;;;27.90;99.90;;;;;;5074949;28;20193;-75
2023/01/28 07:14:59;;;;;;;10.65;2.35;;;27.90;99.90;;;;;;5075074;28;20193;-75
2023/01/28 07:17:30;;;;;;;11.02;2.35;;;27.90;99.90;;;;;;5074835;28;20276;-76
2023/01/28 07:20:00;;;;;;;9.90;2.13;;;27.90;99.90;;;;;;5073795;28;20193;-76
2023/01/28 07:22:33;;;;;;;10.23;2.45;;;27.90;99.90;;;;;;5079285;28;20633;-75
2023/01/28 07:25:04;;;;;;;9.38;2.38;;;27.80;99.90;;;;;;5069140;28;20221;-75
2023/01/28 07:27:35;;;;;;;6.38;1.92;;;27.70;99.90;;;;;;5073680;28;20217;-76
2023/01/28 07:30:07;;;;;;;8.18;2.40;;;27.70;99.90;;;;;;5070710;28;20280;-75
2023/01/28 07:32:38;;;;;;;10.73;2.08;;;27.60;99.90;;;;;;5073478;28;20284;-76
2023/01/28 07:35:10;;;;;;;8.27;2.17;;;27.50;99.90;;;;;;5074225;28;20651;-75
2023/01/28 07:37:42;;;;;;;11.00;2.58;;;27.40;99.90;;;;;;5074303;28;20197;-76
2023/01/28 07:40:14;;;;;;;8.05;2.03;;;27.30;99.90;;;;;;5074202;28;20654;-76
2023/01/28 07:42:45;;;;;;;8.57;2.03;;;27.30;99.90;;;;;;5074317;28;20224;-75
2023/01/28 07:45:16;;;;;;;9.02;1.83;;;27.30;99.90;;;;;;5074312;28;20621;-75
2023/01/28 07:47:54;;;;;;;10.20;2.50;;;27.20;99.90;;;;;;5070476;28;20656;-75
2023/01/28 07:50:25;;;;;;;9.10;1.95;;;27.20;99.90;;;;;;5073800;28;20188;-75
2023/01/28 07:52:58;;;;;;;10.45;2.10;;;27.20;99.90;;;;;;5087551;28;20283;-75
2023/01/28 07:55:29;;;;;;;7.95;2.03;;;27.20;99.90;;;;;;5094093;28;20320;-75
2023/01/28 07:58:01;;;;;;;10.73;2.30;;;27.20;99.90;;;;;;5083920;28;20243;-75
2023/01/28 08:00:34;;;;;;;10.07;2.33;;;27.10;99.90;;;;;;5079965;28;20203;-76
2023/01/28 08:03:06;;;;;;;6.85;2.15;;;27.10;99.90;;;;;;5072140;28;20197;-77
2023/01/28 08:05:42;;;;;;;7.90;2.30;;;27.10;99.90;;;;;;5072759;28;20629;-76
2023/01/28 08:08:15;;;;;;;8.63;2.25;;;27.10;99.90;;;;;;5073207;28;20197;-75
2023/01/28 08:10:46;;;;;;;11.30;2.50;;;27.10;99.90;;;;;;5073796;28;20283;-75
2023/01/28 08:13:18;;;;;;;9.48;2.22;;;27.00;99.90;;;;;;5073466;28;20296;-75
2023/01/28 08:15:50;;;;;;;18.05;2.90;;;27.00;99.90;;;;;;5073255;28;20220;-75
2023/01/28 08:18:21;;;;;;;11.25;2.47;;;26.90;99.90;;;;;;5060808;28;20197;-75
2023/01/28 08:20:56;;;;;;;14.65;2.38;;;26.90;99.90;;;;;;5073303;28;20673;-76
2023/01/28 08:23:29;;;;;;;10.43;2.40;;;26.90;99.90;;;;;;5072659;28;20283;-76
2023/01/28 08:26:02;;;;;;;13.52;2.65;;;26.90;99.90;;;;;;5072888;28;20234;-75
2023/01/28 08:28:33;;;;;;;11.77;2.45;;;26.80;99.90;;;;;;5060822;28;20196;-76
2023/01/28 08:31:04;;;;;;;12.15;2.60;;;26.80;99.90;;;;;;5068370;28;20197;-75
2023/01/28 08:33:35;;;;;;;10.10;2.40;;;26.80;99.90;;;;;;5068118;28;20199;-75
2023/01/28 08:36:07;;;;;;;12.65;2.65;;;26.80;99.90;;;;;;5073039;28;20567;-76
2023/01/28 08:38:40;;;;;;;6.80;2.08;;;26.70;99.90;;;;;;5073099;28;20193;-75
2023/01/28 08:41:11;;;;;;;12.18;4.03;;;26.70;99.90;;;;;;5073203;28;20204;-76
2023/01/28 08:43:42;;;;;;;10.20;2.72;;;26.70;99.90;;;;;;5072937;28;20276;-76
2023/01/28 08:46:13;;;;;;;11.80;3.53;;;26.60;99.90;;;;;;5072475;28;20616;-75
2023/01/28 08:48:44;;;;;;;11.07;2.63;;;26.60;99.90;;;;;;5060169;28;20193;-75
2023/01/28 08:51:15;;;;;;;15.02;2.88;;;26.50;99.90;;;;;;5072718;28;20196;-76
2023/01/28 08:53:48;;;;;;;13.00;2.72;;;26.50;99.90;;;;;;5073023;28;20243;-75
2023/01/28 08:56:19;;;;;;;12.10;2.70;;;26.40;99.90;;;;;;5072947;28;20207;-77
2023/01/28 08:58:50;;;;;;;11.23;2.90;;;26.30;99.90;;;;;;5072665;28;20231;-76
2023/01/28 09:01:21;;;;;;;17.58;3.00;;;26.30;99.90;;;;;;5072242;28;20580;-75
2023/01/28 09:03:52;;;;;;;14.50;2.90;;;26.20;99.90;;;;;;5073069;28;20207;-75
2023/01/28 09:06:22;;;;;;;13.60;2.92;;;26.10;99.90;;;;;;5072489;28;20212;-76
2023/01/28 09:08:58;;;;;;;13.82;2.83;;;26.10;99.90;;;;;;5072862;28;20662;-78
2023/01/28 09:11:29;;;;;;;14.93;3.38;;;26.10;99.90;;;;;;5075973;28;20275;-75
2023/01/28 09:14:01;;;;;;;9.23;2.53;;;26.10;99.90;;;;;;5076889;28;20196;-75
2023/01/28 09:16:32;;;;;;;11.88;2.78;;;26.00;99.90;;;;;;5077023;28;20208;-75
2023/01/28 09:19:05;;;;;;;13.15;2.65;;;26.00;99.90;;;;;;5076553;28;20196;-75
2023/01/28 09:21:36;;;;;;;11.10;2.30;;;26.00;99.90;;;;;;5076851;28;20283;-75
2023/01/28 09:24:13;;;;;;;10.18;2.55;;;25.90;99.90;;;;;;5076624;28;20315;-74
2023/01/28 09:26:44;;;;;;;16.50;2.97;;;25.90;99.90;;;;;;5076996;28;20216;-76
2023/01/28 09:29:15;;;;;;;11.35;2.53;;;25.90;99.90;;;;;;5076777;28;20200;-76
2023/01/28 09:31:46;;;;;;;15.70;3.20;;;25.80;99.90;;;;;;5076856;28;20189;-75
2023/01/28 09:34:17;;;;;;;11.77;2.95;;;25.80;99.90;;;;;;5064295;28;20196;-75
2023/01/28 09:36:48;;;;;;;16.38;2.95;;;25.80;99.90;;;;;;5076270;28;20197;-75
2023/01/28 09:39:21;;;;;;;12.27;2.70;;;25.80;99.90;;;;;;5076313;28;20201;-75
2023/01/28 09:41:57;;;;;;;15.38;3.10;;;25.70;99.90;;;;;;5076487;28;20465;-76
2023/01/28 09:44:42;;;;;;;11.88;2.60;;;25.70;99.90;;;;;;5071371;28;20198;-76
2023/01/28 09:47:27;;;;;;;12.98;3.03;;;25.70;99.90;;;;;;5072853;28;20295;-75
2023/01/28 09:50:03;;;;;;;12.45;2.72;;;25.70;99.90;;;;;;5074844;28;20203;-76
2023/01/28 09:52:40;;;;;;;19.23;3.10;;;25.70;99.90;;;;;;5068649;28;20188;-74
2023/01/28 09:55:21;;;;;;;11.48;2.53;;;25.60;99.90;;;;;;5074565;28;20188;-75
2023/01/28 09:57:55;;;;;;;14.20;2.72;;;25.60;99.90;;;;;;5075029;28;20237;-74
2023/01/28 10:00:30;;;;;;;14.20;2.63;;;25.60;99.90;;;;;;5075440;28;20188;-75
2023/01/28 10:03:30;;;;;;;14.45;2.90;;;25.60;99.90;;;;;;5071602;28;20203;-75
2023/01/28 10:06:13;;;;;;;12.10;3.00;;;25.60;99.90;;;;;;5071817;28;20567;-75
2023/01/28 10:09:20;;;;;;;13.00;2.67;;;25.50;99.90;;;;;;5074695;28;20571;-75
2023/01/28 10:12:15;;;;;;;12.68;3.30;;;25.60;99.90;;;;;;5065365;28;20204;-78
2023/01/28 10:15:05;;;;;;;10.75;2.75;;;25.60;99.90;;;;;;5073621;28;20193;-75
2023/01/28 10:17:42;;;;;;;15.98;3.28;;;25.60;99.90;;;;;;5073086;28;20204;-75
2023/01/28 10:20:24;;;;;;;13.32;2.97;;;25.60;99.90;;;;;;5074930;28;20289;-75
2023/01/28 10:23:00;;;;;;;10.57;2.83;;;25.50;99.90;;;;;;5069738;28;20705;-75
2023/01/28 10:25:33;;;;;;;14.43;3.22;;;25.50;99.90;;;;;;5075196;28;20203;-75
2023/01/28 10:28:16;;;;;;;14.98;3.35;;;25.40;99.90;;;;;;5074062;28;20683;-75
2023/01/28 10:30:48;;;;;;;15.05;2.90;;;25.50;99.90;;;;;;5072561;28;21937;-75
2023/01/28 10:33:25;;;;;;;15.40;3.15;;;25.50;99.90;;;;;;5071624;28;20653;-75
2023/01/28 10:35:57;;;;;;;21.05;3.50;;;25.40;99.90;;;;;;5072757;28;20204;-75
2023/01/28 10:38:29;;;;;;;15.25;2.97;;;25.40;99.90;;;;;;5073461;28;20280;-75
2023/01/28 10:41:05;;;;;;;17.67;3.47;;;25.40;99.90;;;;;;5073367;28;20653;-75
2023/01/28 10:43:42;;;;;;;16.52;2.90;;;25.40;99.90;;;;;;5074727;28;20203;-75
2023/01/28 10:46:17;;;;;;;11.25;3.05;;;25.40;99.90;;;;;;5075381;28;20197;-75
2023/01/28 10:48:50;;;;;;;13.02;2.92;;;25.40;99.90;;;;;;5072358;28;20196;-76
2023/01/28 10:51:31;;;;;;;12.10;3.00;;;25.40;99.90;;;;;;5073524;28;20281;-75
2023/01/28 10:54:02;;;;;;;16.58;2.78;;;25.40;99.90;;;;;;5070740;28;20197;-76
2023/01/28 10:56:34;;;;;;;14.68;3.00;;;25.40;99.90;;;;;;5072446;28;20287;-76
2023/01/28 10:59:19;;;;;;;18.00;3.30;;;25.40;99.90;;;;;;5072756;28;20242;-76
2023/01/28 11:01:53;;;;;;;14.80;2.97;;;25.40;99.90;;;;;;5080021;28;20220;-76
2023/01/28 11:04:28;;;;;;;14.82;3.25;;;25.40;99.90;;;;;;5070684;28;20238;-75
2023/01/28 11:07:02;;;;;;;12.27;3.97;;;25.30;99.90;;;;;;5071126;28;20760;-75
2023/01/28 11:09:35;;;;;;;18.85;3.70;;;25.40;99.90;;;;;;5073053;28;20189;-75
2023/01/28 11:12:15;;;;;;;13.13;3.22;;;25.30;99.90;;;;;;5071457;28;20200;-76
2023/01/28 11:14:53;;;;;;;13.63;2.95;;;25.30;99.90;;;;;;5061824;28;20197;-75
2023/01/28 11:17:25;;;;;;;13.38;3.38;;;25.30;99.90;;;;;;5074071;28;20205;-75
2023/01/28 11:19:57;;;;;;;11.32;2.88;;;25.30;99.90;;;;;;5074806;28;20196;-76
2023/01/28 11:22:35;;;;;;;15.60;3.42;;;25.20;99.90;;;;;;5074461;28;20215;-73
2023/01/28 11:25:15;;;;;;;11.90;3.25;;;25.20;99.90;;;;;;5074910;28;20311;-76
2023/01/28 11:27:50;;;;;;;11.00;3.05;;;25.20;99.90;;;;;;5074526;28;20213;-74
2023/01/28 11:30:28;;;;;;;16.17;3.05;;;25.20;99.90;;;;;;5074447;28;20223;-76
2023/01/28 11:33:07;;;;;;;19.13;3.20;;;25.20;99.90;;;;;;5069256;28;20204;-76
2023/01/28 11:35:38;;;;;;;12.63;3.17;;;25.20;99.90;;;;;;5073618;28;20196;-76
2023/01/28 11:38:20;;;;;;;14.80;3.13;;;25.20;99.90;;;;;;5074380;28;20201;-76
2023/01/28 11:40:54;;;;;;;13.27;2.92;;;25.20;99.90;;;;;;5067315;28;20193;-76
2023/01/28 11:43:27;;;;;;;15.02;3.30;;;25.20;99.90;;;;;;5074189;28;20193;-75
2023/01/28 11:46:14;;;;;;;14.45;3.25;;;25.10;99.90;;;;;;5073897;28;20284;-76
2023/01/28 11:48:54;;;;;;;18.63;3.65;;;25.10;99.90;;;;;;5073712;28;20228;-75
2023/01/28 11:51:38;;;;;;;14.50;3.28;;;25.10;99.90;;;;;;5073572;28;20197;-78
2023/01/28 11:54:34;;;;;;;16.42;3.47;;;25.10;99.90;;;;;;5074144;28;20727;-76
2023/01/28 11:57:19;;;;;;;17.60;3.42;;;25.10;99.90;;;;;;5072627;28;20215;-76
2023/01/28 12:00:10;;;;;;;11.48;3.47;;;25.00;99.90;;;;;;5072245;28;20203;-75
2023/01/28 12:02:56;;;;;;;14.65;3.55;;;25.00;99.90;;;;;;5071180;28;20197;-76
2023/01/28 12:05:50;;;;;;;14.27;3.10;;;25.00;99.90;;;;;;5062370;28;20197;-76
2023/01/28 12:08:26;;;;;;;16.98;3.35;;;25.00;99.90;;;;;;5071223;28;20212;-76
2023/01/28 12:11:14;;;;;;;16.90;3.35;;;25.00;99.90;;;;;;5071164;28;20197;-76
2023/01/28 12:13:58;;;;;;;16.17;3.15;;;25.00;99.90;;;;;;5076359;28;20196;-76
2023/01/28 12:16:43;;;;;;;16.95;3.33;;;25.00;99.90;;;;;;5073180;28;20201;-76
2023/01/28 12:19:38;;;;;;;17.60;3.58;;;25.00;99.90;;;;;;5072422;28;20199;-76
2023/01/28 12:22:27;;;;;;;15.65;3.17;;;25.00;99.90;;;;;;5077840;28;20221;-76
2023/01/28 12:25:11;;;;;;;14.02;3.30;;;25.00;99.90;;;;;;5073704;28;20208;-76
2023/01/28 12:27:53;;;;;;;10.55;3.30;;;25.00;99.90;;;;;;5073196;28;20211;-77
2023/01/28 12:30:35;;;;;;;12.90;3.00;;;25.00;99.90;;;;;;5073217;28;20200;-77
2023/01/28 12:33:28;;;;;;;17.23;3.70;;;25.00;99.90;;;;;;5071600;28;20229;-77
2023/01/28 12:36:06;;;;;;;20.75;3.33;;;25.00;99.90;;;;;;5073090;28;20189;-76
2023/01/28 12:38:47;;;;;;;14.30;3.30;;;24.90;99.90;;;;;;5054013;28;20279;-75
2023/01/28 12:41:22;;;;;;;17.23;3.65;;;24.90;99.90;;;;;;5072205;28;20196;-76
2023/01/28 12:43:59;;;;;;;14.23;3.10;;;24.90;99.90;;;;;;5071949;28;20212;-75
2023/01/28 12:46:41;;;;;;;17.70;3.67;;;24.90;99.90;;;;;;5070618;28;20283;-75
2023/01/28 12:49:18;;;;;;;16.60;3.33;;;24.90;99.90;;;;;;5072035;28;20216;-76
2023/01/28 12:52:04;;;;;;;15.23;3.28;;;24.90;99.90;;;;;;5072169;28;20705;-76
2023/01/28 12:54:42;;;;;;;13.50;4.47;;;24.90;99.90;;;;;;5072675;28;20201;-76
2023/01/28 12:57:20;;;;;;;16.17;3.47;;;24.90;99.90;;;;;;5071364;28;20197;-77
2023/01/28 12:59:55;;;;;;;17.15;3.30;;;24.90;99.90;;;;;;5071743;28;20212;-76
2023/01/28 13:02:28;;;;;;;14.20;3.40;;;24.90;99.90;;;;;;5069975;28;20196;-76
2023/01/28 13:05:06;;;;;;;17.77;3.70;;;24.80;99.90;;;;;;5072060;28;20200;-76
2023/01/28 13:07:48;;;;;;;13.13;3.10;;;24.90;99.90;;;;;;5071915;28;20684;-76
2023/01/28 13:10:26;;;;;;;16.70;3.60;;;24.80;99.90;;;;;;5071440;28;20308;-76
2023/01/28 13:12:58;;;;;;;20.42;3.25;;;24.90;99.90;;;;;;5064242;28;20207;-77
2023/01/28 13:15:30;;;;;;;15.15;3.42;;;24.90;99.90;;;;;;5071799;28;20199;-76
2023/01/28 13:18:02;;;;;;;12.32;3.00;;;24.90;99.90;;;;;;5071766;28;20208;-76
2023/01/28 13:20:41;;;;;;;13.90;3.42;;;24.90;99.90;;;;;;5072949;28;20217;-76
2023/01/28 13:23:28;;;;;;;21.95;5.22;;;24.90;99.90;;;;;;5072815;28;20197;-76
2023/01/28 13:26:10;;;;;;;16.55;5.38;;;24.80;99.90;;;;;;5071387;28;20677;-76
2023/01/28 13:28:41;;;;;;;17.38;5.30;;;24.80;99.90;;;;;;5071147;28;20759;-76
2023/01/28 13:31:16;;;;;;;20.88;6.25;;;24.80;99.90;;;;;;5071521;28;20660;-75
2023/01/28 13:33:50;;;;;;;19.15;6.15;;;24.80;99.90;;;;;;5070963;28;20236;-77
2023/01/28 13:36:28;;;;;;;22.02;7.07;;;24.80;99.90;;;;;;5071965;28;20578;-75
2023/01/28 13:39:08;;;;;;;20.30;6.55;;;24.80;99.90;;;;;;5071801;28;20199;-76
2023/01/28 13:41:44;;;;;;;18.17;6.03;;;24.80;99.90;;;;;;5071552;28;20189;-75
2023/01/28 13:44:30;;;;;;;16.50;5.57;;;24.80;99.90;;;;;;5071838;28;20196;-75
2023/01/28 13:47:15;;;;;;;16.20;5.90;;;24.80;99.90;;;;;;5072334;28;20199;-76
2023/01/28 13:49:49;;;;;;;12.55;5.38;;;24.80;99.90;;;;;;5071962;28;20188;-76
2023/01/28 13:52:25;;;;;;;20.20;6.05;;;24.80;99.90;;;;;;5070734;28;20635;-77